Pagrindinis puslapis
METAR-TAF:

METAR-TAF

Oro uostai :

Luangnamta, Laosas

platuma: 20-57-38N, ilguma: 101-24-09E, Aukštis: 600 m

Dabartinis oras

Ataskaita buvo paskelbta 1 valandą ir 14 minutes, ne 09:00 UTC
Vėjas 2 kt iš Pietų/Pietryčių
Temperatūra 27°C
Drėgmė 51%
Slėgis 1017 hPa
Matomumas: 9000 m
Išsisklaidę debesys ne aukštis 2000 ft

METAR: VLLN 290900Z 16002KT 9000 SCT020 27/16 Q1017 NOSIG

Laikas: 15:44 (10:14 UTC)

Prognozė

Ataskaita buvo paskelbta 5 valandos ir 14 minutes, ne 05:00 UTC
Prognozė galioja nuo 29 metu 06 UTC su 30 metu 06 UTC
Vėjas 6 kt iš Rytų
Matomumas: 8000 m
Išsisklaidę debesys ne aukštis 2000 ft
Mažai debesys ne aukštis 10000 ft

TAF: VLLN 290500Z 2906/3006 09006KT 8000 SCT020 FEW100

Orai ataskaitas ir orų prognozės (METAR, TAF).

turimą stotys yra geltonos ir raudonos taškus žemėlapyje.

Perkelti pele per norėdami pamatyti stoties vardą.

Tada spustelėkite, norėdami matyti oro stebėjimo ir prognozės.

Norėdami pakeisti žemėlapį: spustelėkite ant žalios mygtukų su juodo kryžiaus žemyn,; žalią mygtuką su brūkšneliu, jei norite nutolinti; arba žalių rodyklių gretimoms žemėlapius.


METAR-TAF: